Latest Weather Observations for Perth Airport

IDW60901

Issued at 9:01 pm WST Wednesday 1 April 2015 (issued every 10 minutes, with the page automatically refreshed every 10 minutes)

About weather observations | Map of Perth area stations | Latest observations for Perth area | Other Formats
Station Details ID: 009021 Name: PERTH AIRPORT Lat: -31.93 Lon: 115.98 Height: 15.4 m
Data from the previous 72 hours. | See also: Recent months at Perth Airport
Date/Time
WST
Tmp

°C
App
Tmp
°C
Dew
Point
°C
Rel
Hum
%
Delta-T

°C
Wind Press
QNH
hPa
Press
MSL
hPa
Rain
since
9 am
mm
Dir
 
Spd
km/h
Gust
km/h
Spd
kts
Gust
kts
01/09:00pm 20.1 17.7 10.2 53 5.3 E 13 17 7 9 1021.8 - 0.0
01/08:30pm 20.7 17.0 9.6 49 5.9 E 19 26 10 14 1021.7 - 0.0
01/08:00pm 20.4 18.0 9.9 51 5.6 E 13 17 7 9 1021.6 - 0.0
01/07:30pm 20.5 18.2 10.3 52 5.5 E 13 17 7 9 1021.5 - 0.0
01/07:00pm 21.6 18.7 9.7 46 6.4 E 15 20 8 11 1021.1 - 0.0
01/05:30pm 24.1 19.3 8.8 37 8.2 E 24 33 13 18 1020.3 - 0.0
01/05:00pm 24.4 19.7 9.3 38 8.2 ESE 24 30 13 16 1020.1 - 0.0
01/04:30pm 26.0 20.2 9.4 35 9.1 E 30 37 16 20 1020.1 - 0.0
01/04:00pm 25.5 21.1 9.1 35 8.9 E 22 30 12 16 1020.1 - 0.0
01/03:30pm 25.4 19.9 9.2 36 8.8 E 28 39 15 21 1020.2 - 0.0
01/03:00pm 25.6 21.0 9.8 37 8.7 E 24 30 13 16 1020.3 1020.3 0.0
01/02:30pm 26.7 22.9 9.7 34 9.4 E 20 26 11 14 1020.5 - 0.0
01/02:00pm 26.1 22.4 10.3 37 8.8 E 20 33 11 18 1020.7 - 0.0
01/01:30pm 25.1 21.4 10.3 39 8.2 ESE 20 30 11 16 1021.0 - 0.0
01/01:00pm 24.8 21.4 10.6 40 7.9 E 19 30 10 16 1021.5 - 0.0
01/12:30pm 25.4 21.5 10.7 39 8.2 E 22 33 12 18 1021.9 - 0.0
01/12:00pm 25.5 21.6 10.8 39 8.2 E 22 32 12 17 1022.3 1022.3 0.0
01/11:30am 24.9 21.6 10.9 41 7.8 E 19 37 10 20 1022.8 - 0.0
01/11:00am 23.8 19.5 10.8 44 7.2 ESE 24 33 13 18 1023.2 - 0.0
01/10:30am 23.0 19.6 10.6 45 6.8 E 19 28 10 15 1023.5 - 0.0
01/10:00am 21.8 17.8 10.6 49 6.1 E 22 32 12 17 1023.9 - 0.0
01/09:30am 20.7 19.1 10.1 50 5.7 E 9 17 5 9 1023.9 - 0.0
01/09:00am 19.5 17.4 9.9 54 5.1 SE 11 15 6 8 1023.8 1023.9 0.0
01/08:30am 18.7 16.7 10.0 57 4.6 SE 11 17 6 9 1023.7 - 0.0
01/08:00am 17.5 15.5 10.1 62 3.9 ESE 11 15 6 8 1023.8 - 0.0
01/07:30am 16.4 14.0 9.9 65 3.4 SE 13 22 7 12 1023.6 - 0.0
01/07:00am 15.2 12.3 9.6 69 2.9 S 15 19 8 10 1023.4 - 0.0
01/06:30am 14.8 11.1 9.5 70 2.7 S 19 22 10 12 1023.1 - 0.0
01/05:00am 15.0 12.0 9.1 68 3.0 S 15 19 8 10 1022.6 - 0.0
01/04:30am 15.4 11.6 9.1 66 3.2 S 19 26 10 14 1022.6 - 0.0
01/04:00am 15.6 11.6 8.9 64 3.4 S 20 24 11 13 1022.4 - 0.0
01/03:30am 15.6 12.6 9.2 65 3.3 S 15 19 8 10 1022.4 - 0.0
01/03:00am 16.0 12.7 9.4 65 3.4 SSE 17 28 9 15 1022.4 1022.4 0.0
01/02:30am 16.3 12.6 10.2 67 3.2 ESE 20 26 11 14 1022.2 - 0.0
01/02:00am 15.2 13.2 12.6 84 1.4 S 15 19 8 10 1022.1 - 0.0
01/01:30am 16.4 14.1 13.0 80 1.9 S 17 20 9 11 1021.7 - 0.0
01/01:00am 16.5 14.3 13.3 81 1.8 S 17 22 9 12 1021.4 - 0.0
01/12:30am 16.6 14.5 13.6 82 1.7 S 17 19 9 10 1021.2 - 0.0
 
Date/Time
WST
Tmp

°C
App
Tmp
°C
Dew
Point
°C
Rel
Hum
%
Delta-T

°C
Wind Press
QNH
hPa
Press
MSL
hPa
Rain
since
9 am
mm
Dir
 
Spd
km/h
Gust
km/h
Spd
kts
Gust
kts
31/11:30pm 17.4 14.8 13.9 80 2.0 S 20 26 11 14 1020.7 - 0.0
31/11:00pm 17.8 15.5 14.1 79 2.1 S 19 26 10 14 1020.5 - 0.0
31/10:30pm 18.3 17.0 14.9 80 2.0 S 15 24 8 13 1020.4 - 0.0
31/10:00pm 18.9 16.0 15.1 78 2.2 S 24 32 13 17 1020.4 - 0.0
31/09:30pm 19.4 17.7 15.7 79 2.2 S 19 26 10 14 1020.1 - 0.0
31/09:00pm 19.6 18.3 15.7 78 2.3 SSW 17 19 9 10 1019.9 1019.8 0.0
31/08:30pm 19.9 18.9 15.5 76 2.6 SSW 15 19 8 10 1019.8 - 0.0
31/08:00pm 20.1 18.6 15.4 74 2.8 SSW 17 24 9 13 1019.5 - 0.0
31/07:30pm 20.5 17.7 15.4 72 3.0 SSW 24 32 13 17 1019.2 - 0.0
31/07:00pm 20.9 18.6 15.7 72 3.1 SSW 22 35 12 19 1018.6 - 0.0
31/06:30pm 21.1 17.6 15.4 70 3.4 SW 28 33 15 18 1018.3 - 0.0
31/06:00pm 21.8 18.0 14.7 64 4.2 SW 28 33 15 18 1018.0 1017.9 0.0
31/05:30pm 23.0 18.6 12.9 53 5.8 SW 28 35 15 19 1017.4 - 0.0
31/05:00pm 24.0 19.5 12.7 49 6.5 SW 28 35 15 19 1017.2 - 0.0
31/04:30pm 24.3 19.8 13.7 51 6.2 WSW 30 37 16 20 1016.9 - 0.0
31/04:00pm 24.9 22.3 13.8 50 6.5 SW 20 30 11 16 1016.6 - 0.0
31/03:30pm 24.5 20.8 14.0 52 6.2 SW 26 33 14 18 1016.6 - 0.0
31/03:00pm 24.6 20.5 13.9 51 6.3 SSW 28 33 15 18 1016.6 1016.5 0.0
31/02:30pm 24.9 22.1 14.3 51 6.3 WSW 22 32 12 17 1016.4 - 0.0
31/02:00pm 24.9 21.5 13.6 49 6.6 W 24 33 13 18 1016.6 - 0.0
31/01:30pm 25.3 21.3 12.9 46 7.2 WSW 26 33 14 18 1016.7 - 0.0
31/01:00pm 24.1 21.1 12.4 48 6.7 SW 20 28 11 15 1016.9 - 0.0
31/12:30pm 24.2 21.1 12.3 47 6.8 SSW 20 32 11 17 1017.0 - 0.0
31/12:00pm 23.5 19.9 12.0 48 6.5 SSW 22 28 12 15 1017.3 1017.2 0.0
31/11:30am 23.3 20.4 12.2 49 6.3 SSW 19 30 10 16 1017.6 - 0.0
31/11:00am 23.5 20.3 12.0 48 6.5 SSW 20 28 11 15 1017.9 - 0.0
31/10:30am 22.9 21.3 12.8 53 5.8 SSW 13 20 7 11 1018.1 - 0.0
31/10:00am 22.2 19.8 12.5 54 5.5 SSW 17 26 9 14 1018.1 - 0.0
31/09:30am 22.2 19.9 13.1 56 5.2 SSW 17 24 9 13 1018.2 - 0.0
31/09:00am 21.1 19.2 14.2 64 4.0 S 17 20 9 11 1018.0 1017.9 0.0
31/08:30am 20.2 18.8 14.5 69 3.3 S 15 20 8 11 1018.0 - 0.0
31/08:00am 19.3 18.3 14.7 74 2.7 S 13 17 7 9 1017.7 - 0.0
31/07:30am 18.2 17.1 14.4 78 2.2 S 13 15 7 8 1017.2 - 0.0
31/07:00am 17.4 16.7 14.4 82 1.7 S 11 15 6 8 1017.0 - 0.0
31/06:30am 17.1 15.8 14.7 86 1.4 S 15 19 8 10 1016.8 - 0.0
31/06:00am 17.4 15.7 14.6 83 1.6 S 17 20 9 11 1016.5 1016.4 0.0
31/05:30am 17.2 16.8 15.1 87 1.2 SSW 11 15 6 8 1016.3 - 0.0
31/05:00am 17.2 16.9 15.5 90 1.0 SSW 11 13 6 7 1016.2 - 0.0
31/04:30am 17.5 16.5 15.6 89 1.1 S 15 17 8 9 1016.1 - 0.0
31/04:00am 17.4 17.3 15.9 91 0.9 S 11 15 6 8 1015.9 - 0.0
31/03:30am 17.5 17.0 15.8 90 1.0 S 13 15 7 8 1015.8 - 0.0
31/03:00am 17.9 17.8 16.0 89 1.1 SSW 11 13 6 7 1015.9 1015.8 0.0
31/02:30am 18.2 18.0 15.8 86 1.4 SSW 11 13 6 7 1016.0 - 0.0
31/02:00am 18.8 18.4 16.1 84 1.6 SSW 13 15 7 8 1016.0 - 0.0
31/01:30am 18.9 18.5 16.2 84 1.6 S 13 15 7 8 1016.2 - 0.0
31/01:00am 19.3 18.8 15.9 81 2.0 S 13 15 7 8 1016.5 - 0.0
31/12:30am 18.9 18.9 16.2 84 1.6 SSW 11 13 6 7 1016.6 - 0.0
31/12:00am 19.2 19.3 16.5 84 1.6 S 11 15 6 8 1016.6 1016.5 0.0
 
Date/Time
WST
Tmp

°C
App
Tmp
°C
Dew
Point
°C
Rel
Hum
%
Delta-T

°C
Wind Press
QNH
hPa
Press
MSL
hPa
Rain
since
9 am
mm
Dir
 
Spd
km/h
Gust
km/h
Spd
kts
Gust
kts
30/11:30pm 19.7 19.4 16.4 81 2.0 S 13 15 7 8 1017.0 - 0.0
30/11:00pm 20.3 20.0 16.5 79 2.3 S 13 17 7 9 1017.3 - 0.0
30/10:30pm 20.5 19.9 16.7 79 2.3 SSW 15 20 8 11 1017.2 - 0.0
30/10:00pm 20.4 21.1 17.1 81 2.0 S 9 13 5 7 1018.0 - 0.0
30/09:30pm 20.8 21.0 16.8 78 2.4 SW 11 13 6 7 1017.9 - 0.0
30/09:00pm 20.9 20.0 16.8 77 2.5 SW 17 19 9 10 1017.7 1017.6 0.0
30/08:30pm 21.0 20.9 16.9 77 2.5 SW 13 17 7 9 1017.8 - 0.0
30/08:00pm 21.0 21.6 16.7 76 2.6 W 9 17 5 9 1017.9 - 0.0
30/07:30pm 20.7 21.4 17.1 80 2.2 WNW 9 13 5 7 1017.4 - 0.0
30/07:00pm 21.3 22.0 17.0 76 2.6 W 9 13 5 7 1017.0 - 0.0
30/06:30pm 21.6 21.5 17.0 75 2.8 WSW 13 15 7 8 1016.4 - 0.0
30/06:00pm 21.9 20.8 16.3 70 3.4 SW 17 20 9 11 1016.1 1016.0 0.0
30/05:30pm 22.4 21.3 15.2 63 4.3 WSW 15 19 8 10 1015.9 - 0.0
30/05:00pm 22.9 20.4 13.6 55 5.4 WSW 19 22 10 12 1015.8 - 0.0
30/04:30pm 23.6 20.6 12.6 50 6.3 SSW 20 26 11 14 1015.7 - 0.0
30/04:00pm 23.7 21.2 14.0 54 5.7 SW 20 26 11 14 1015.6 - 0.0
30/03:30pm 23.9 22.1 15.4 59 5.1 WSW 19 24 10 13 1015.2 - 0.0
30/03:00pm 24.2 22.8 15.6 58 5.2 WSW 17 26 9 14 1015.0 1014.9 0.0
30/02:30pm 25.3 23.7 15.0 53 6.2 W 17 22 9 12 1015.1 - 0.0
30/02:00pm 25.7 23.9 13.4 46 7.2 W 15 17 8 9 1014.7 - 0.0
30/01:30pm 26.6 23.8 13.1 43 7.9 WSW 20 28 11 15 1014.7 - 0.0
30/01:00pm 27.0 25.3 12.5 40 8.4 W 13 20 7 11 1014.6 - 0.0
30/12:30pm 27.7 25.1 9.5 32 10.1 W 13 17 7 9 1014.9 - 0.0
30/12:00pm 27.6 25.8 9.6 32 10.0 WSW 9 13 5 7 1015.1 1015.0 0.0
30/11:30am 27.3 25.3 8.8 31 10.1 WSW 9 13 5 7 1015.2 - 0.0
30/11:00am 27.2 24.7 8.4 30 10.2 NW 11 15 6 8 1015.6 - 0.0
30/10:30am 26.6 23.9 8.8 32 9.7 N 13 15 7 8 1016.1 - 0.0
30/10:00am 26.4 23.6 8.5 32 9.7 N 13 17 7 9 1016.3 - 0.0
30/09:30am 25.2 22.6 9.2 36 8.7 NNE 13 19 7 10 1016.5 - 0.0
30/09:00am 23.8 21.0 8.6 38 8.1 NE 13 17 7 9 1016.4 1016.3 0.0
30/08:30am 22.4 19.7 9.1 42 7.1 ENE 13 17 7 9 1016.4 - 0.0
30/08:00am 20.3 18.7 10.1 52 5.5 E 9 13 5 7 1016.3 - 0.0
30/07:30am 17.7 16.4 11.2 65 3.5 NE 9 13 5 7 1016.2 - 0.0
30/07:00am 15.4 14.8 10.5 72 2.6 NNW 4 9 2 5 1015.9 - 0.0
30/06:30am 14.6 13.4 10.4 76 2.2 NNE 7 9 4 5 1015.8 - 0.0
30/06:00am 13.7 12.6 10.8 83 1.5 E 7 9 4 5 1015.7 1015.6 0.0
30/05:30am 14.0 13.1 11.4 84 1.4 ESE 7 9 4 5 1015.5 - 0.0
30/05:00am 14.6 13.8 11.6 82 1.6 SSE 7 7 4 4 1015.3 - 0.0
30/04:30am 16.2 15.2 12.2 77 2.2 WSW 9 13 5 7 1015.0 - 0.0
30/04:00am 16.6 14.8 12.0 74 2.5 W 13 17 7 9 1014.9 - 0.0
30/03:30am 13.5 13.8 11.0 85 1.3 CALM 0 6 0 3 1014.8 - 0.0
30/03:00am 13.2 12.5 11.3 88 1.0 E 6 7 3 4 1014.9 1014.8 0.0
30/02:30am 13.7 12.9 11.6 87 1.1 E 7 9 4 5 1015.3 - 0.0
30/02:00am 14.1 13.6 12.1 88 1.1 SE 6 7 3 4 1015.7 - 0.0
30/01:30am 13.7 12.9 11.8 88 1.0 E 7 7 4 4 1016.1 - 0.0
30/01:00am 14.3 15.0 12.1 87 1.2 CALM 0 0 0 0 1016.4 - 0.0
30/12:30am 15.1 15.7 12.0 82 1.7 CALM 0 0 0 0 1016.5 - 0.0
30/12:00am 15.8 15.7 12.1 78 2.0 E 4 7 2 4 1016.8 1016.7 0.0
 
Date/Time
WST
Tmp

°C
App
Tmp
°C
Dew
Point
°C
Rel
Hum
%
Delta-T

°C
Wind Press
QNH
hPa
Press
MSL
hPa
Rain
since
9 am
mm
Dir
 
Spd
km/h
Gust
km/h
Spd
kts
Gust
kts
29/11:30pm 15.9 16.2 12.2 78 2.0 SSE 2 7 1 4 1017.0 - 0.0
29/11:00pm 16.4 15.4 12.2 76 2.3 SSW 9 11 5 6 1016.9 - 0.0
29/10:30pm 18.4 17.0 12.1 66 3.5 SSW 11 13 6 7 1017.1 - 0.0
29/10:00pm 20.1 18.4 12.6 62 4.2 S 13 15 7 8 1017.2 - 0.0
29/09:30pm 20.9 19.6 12.6 59 4.7 SSW 11 15 6 8 1017.5 - 0.0

Latest Capital City Observations: Canberra | Sydney | Melbourne | Brisbane | Adelaide | Perth | Hobart | Darwin

Other Formats:

Comma delimited format used in spreadsheet applications
http://www.bom.gov.au/fwo/IDW60901/IDW60901.94610.axf

JavaScript Object Notation format (JSON) in row-major order
http://www.bom.gov.au/fwo/IDW60901/IDW60901.94610.json